createdAt,value
2023-02-18T00:01:38.884Z,2.95
2023-02-18T00:04:07.155Z,2.10
2023-02-18T00:06:36.536Z,2.20
2023-02-18T00:09:06.226Z,2.40
2023-02-18T00:11:36.333Z,2.30
2023-02-18T00:14:09.386Z,2.30
2023-02-18T00:16:38.827Z,3.08
2023-02-18T00:19:09.269Z,2.03
2023-02-18T00:21:37.564Z,2.58
2023-02-18T00:24:06.466Z,2.95
2023-02-18T00:26:35.013Z,2.72
2023-02-18T00:29:03.859Z,2.00
2023-02-18T00:31:33.807Z,1.90
2023-02-18T00:34:04.806Z,2.20
2023-02-18T00:36:33.015Z,1.92
2023-02-18T00:39:03.870Z,2.25
2023-02-18T00:41:32.910Z,1.90
2023-02-18T00:44:01.235Z,1.95
2023-02-18T00:46:30.999Z,2.10
2023-02-18T00:48:59.218Z,2.22
2023-02-18T00:51:28.521Z,2.20
2023-02-18T00:53:57.094Z,2.38
2023-02-18T00:56:24.999Z,2.15
2023-02-18T00:58:53.585Z,2.35
2023-02-18T01:01:21.849Z,1.67
2023-02-18T01:03:50.079Z,2.70
2023-02-18T01:06:18.191Z,2.35
2023-02-18T01:08:48.067Z,1.70
2023-02-18T01:11:16.566Z,2.08
2023-02-18T01:13:44.738Z,2.88
2023-02-18T01:16:12.681Z,1.92
2023-02-18T01:18:41.380Z,2.60
2023-02-18T01:21:10.044Z,2.50
2023-02-18T01:23:38.903Z,1.15
2023-02-18T01:26:09.110Z,2.45
2023-02-18T01:28:37.978Z,1.20
2023-02-18T01:31:08.059Z,2.22
2023-02-18T01:33:37.035Z,3.25
2023-02-18T01:41:47.182Z,3.83
2023-02-18T01:44:17.325Z,3.63
2023-02-18T01:46:45.249Z,3.60
2023-02-18T01:49:16.801Z,3.53
2023-02-18T01:51:46.363Z,3.77
2023-02-18T01:54:16.219Z,4.50
2023-02-18T01:56:48.156Z,4.13
2023-02-18T02:01:47.592Z,4.93
2023-02-18T02:04:15.915Z,4.30
2023-02-18T02:06:44.025Z,3.35
2023-02-18T02:09:14.742Z,3.88
2023-02-18T02:11:56.337Z,4.22
2023-02-18T02:14:47.455Z,5.00
2023-02-18T02:17:23.746Z,5.32
2023-02-18T02:20:20.106Z,5.22
2023-02-18T02:23:15.651Z,3.97
2023-02-18T02:26:16.551Z,3.40
2023-02-18T02:29:41.763Z,3.78
2023-02-18T02:32:29.528Z,3.13
2023-02-18T02:35:00.211Z,3.30
2023-02-18T02:37:35.162Z,2.83
2023-02-18T02:40:10.369Z,3.30
2023-02-18T02:42:47.896Z,3.40
2023-02-18T02:45:20.489Z,3.67
2023-02-18T02:47:54.892Z,3.10
2023-02-18T02:50:29.299Z,3.63
2023-02-18T02:53:00.488Z,2.45
2023-02-18T02:55:28.368Z,2.70
2023-02-18T02:57:57.427Z,2.40
2023-02-18T03:00:38.906Z,2.60
2023-02-18T03:03:32.385Z,1.63
2023-02-18T03:06:17.522Z,2.42
2023-02-18T03:08:53.338Z,2.53
2023-02-18T03:11:21.529Z,2.38
2023-02-18T03:13:57.732Z,1.33
2023-02-18T03:16:34.373Z,1.70
2023-02-18T03:19:08.240Z,1.58
2023-02-18T03:21:40.708Z,1.77
2023-02-18T03:24:12.816Z,1.83
2023-02-18T03:26:45.561Z,2.00
2023-02-18T03:29:15.724Z,1.80
2023-02-18T03:31:45.271Z,2.25
2023-02-18T03:34:16.648Z,1.60
2023-02-18T03:42:09.701Z,1.90
2023-02-18T03:44:38.052Z,2.00
2023-02-18T03:47:06.144Z,2.13
2023-02-18T03:49:34.382Z,2.45
2023-02-18T03:52:02.511Z,2.65
2023-02-18T03:54:30.746Z,3.47
2023-02-18T03:56:58.986Z,2.75
2023-02-18T03:59:28.762Z,2.63
2023-02-18T04:01:56.847Z,2.83
2023-02-18T04:04:25.275Z,2.83
2023-02-18T04:06:53.383Z,2.83
2023-02-18T04:09:21.601Z,2.22
2023-02-18T04:11:49.698Z,2.55
2023-02-18T04:14:18.012Z,2.22
2023-02-18T04:16:47.357Z,2.20
2023-02-18T04:19:15.709Z,2.20
2023-02-18T04:21:43.612Z,2.22
2023-02-18T04:24:12.018Z,2.45
2023-02-18T04:26:40.105Z,2.20
2023-02-18T04:29:08.279Z,1.77
2023-02-18T04:31:36.342Z,2.55
2023-02-18T04:34:06.367Z,2.08
2023-02-18T04:36:34.481Z,1.67
2023-02-18T04:39:02.752Z,1.27
2023-02-18T04:41:31.093Z,1.10
2023-02-18T04:43:59.648Z,0.60
2023-02-18T04:46:27.678Z,0.90
2023-02-18T04:48:55.892Z,0.80
2023-02-18T04:51:25.196Z,0.70
2023-02-18T04:53:53.408Z,0.70
2023-02-18T04:56:21.540Z,0.80
2023-02-18T04:58:49.830Z,0.50
2023-02-18T05:01:17.778Z,0.75
2023-02-18T05:03:46.872Z,1.05
2023-02-18T05:06:14.944Z,0.80
2023-02-18T05:08:44.449Z,0.80
2023-02-18T05:11:12.581Z,1.20
2023-02-18T05:13:40.912Z,1.00
2023-02-18T05:16:09.158Z,1.00
2023-02-18T05:18:37.687Z,0.80
2023-02-18T05:21:06.046Z,0.82
2023-02-18T05:23:34.345Z,0.95
2023-02-18T05:26:03.688Z,1.10
2023-02-18T05:28:32.232Z,1.13
2023-02-18T05:31:00.314Z,1.05
2023-02-18T05:33:28.879Z,2.10
2023-02-18T05:35:56.903Z,0.80
2023-02-18T05:38:25.075Z,0.60
2023-02-18T05:40:53.836Z,0.85
2023-02-18T05:43:23.573Z,0.65
2023-02-18T05:45:51.621Z,0.90
2023-02-18T05:48:19.843Z,0.85
2023-02-18T05:50:47.931Z,1.15
2023-02-18T05:53:17.625Z,1.33
2023-02-18T05:55:45.692Z,1.20
2023-02-18T05:58:14.078Z,1.35
2023-02-18T06:00:43.350Z,0.88
2023-02-18T06:03:11.543Z,0.95
2023-02-18T06:05:39.707Z,1.10
2023-02-18T06:08:07.926Z,1.20
2023-02-18T06:10:35.906Z,1.55
2023-02-18T06:13:04.374Z,3.47
2023-02-18T06:15:32.283Z,1.25
2023-02-18T06:18:01.954Z,1.25
2023-02-18T06:20:30.213Z,1.17
2023-02-18T06:22:58.666Z,0.75
2023-02-18T06:25:26.803Z,1.40
2023-02-18T06:27:55.076Z,2.10
2023-02-18T06:30:24.504Z,1.00
2023-02-18T06:32:52.834Z,1.35
2023-02-18T06:35:22.507Z,1.10
2023-02-18T06:37:50.854Z,1.30
2023-02-18T06:40:19.434Z,1.30
2023-02-18T06:42:47.794Z,0.90
2023-02-18T06:45:15.922Z,1.10
2023-02-18T06:47:44.123Z,1.10
2023-02-18T06:50:12.281Z,1.63
2023-02-18T06:52:41.992Z,1.00
2023-02-18T06:55:10.373Z,1.10
2023-02-18T06:57:38.840Z,3.92
2023-02-18T07:00:08.166Z,1.65
2023-02-18T07:02:36.405Z,1.50
2023-02-18T07:05:04.533Z,1.00
2023-02-18T07:07:33.118Z,1.50
2023-02-18T07:10:02.398Z,1.10
2023-02-18T07:12:31.586Z,1.00
2023-02-18T07:14:59.640Z,1.70
2023-02-18T07:17:27.968Z,1.30
2023-02-18T07:19:56.214Z,1.75
2023-02-18T07:22:24.750Z,1.45
2023-02-18T07:24:53.127Z,1.00
2023-02-18T07:27:23.071Z,1.75
2023-02-18T07:29:51.009Z,1.23
2023-02-18T07:32:20.933Z,1.35
2023-02-18T07:34:48.986Z,1.83
2023-02-18T07:37:17.124Z,0.98
2023-02-18T07:39:45.841Z,1.25
2023-02-18T07:42:14.701Z,0.90
2023-02-18T07:44:44.094Z,1.67
2023-02-18T07:47:17.231Z,0.90
2023-02-18T07:49:45.308Z,1.05
2023-02-18T07:52:13.742Z,1.25
2023-02-18T07:54:41.728Z,0.88
2023-02-18T07:57:10.045Z,1.08
2023-02-18T07:59:37.951Z,0.60
2023-02-18T08:02:07.726Z,0.85
2023-02-18T08:04:35.903Z,1.00
2023-02-18T08:07:04.177Z,1.10
2023-02-18T08:09:32.450Z,1.13
2023-02-18T08:12:00.833Z,0.93
2023-02-18T08:14:28.926Z,1.52
2023-02-18T08:16:57.212Z,1.10
2023-02-18T08:19:26.674Z,0.60
2023-02-18T08:21:54.883Z,1.20
2023-02-18T08:24:22.876Z,1.38
2023-02-18T08:27:00.322Z,0.98
2023-02-18T08:29:28.593Z,1.15
2023-02-18T08:31:58.199Z,1.17
2023-02-18T08:34:27.701Z,0.90
2023-02-18T08:36:56.043Z,0.93
2023-02-18T08:39:24.068Z,1.10
2023-02-18T08:41:52.325Z,0.60
2023-02-18T08:44:20.270Z,1.50
2023-02-18T08:46:49.442Z,1.70
2023-02-18T08:49:20.829Z,1.80
2023-02-18T08:51:50.378Z,1.75
2023-02-18T08:54:18.785Z,1.25
2023-02-18T08:56:47.524Z,1.25
2023-02-18T08:59:15.545Z,1.00
2023-02-18T09:01:43.920Z,1.27
2023-02-18T09:04:12.020Z,1.58
2023-02-18T09:06:40.883Z,1.08
2023-02-18T09:09:11.108Z,1.98
2023-02-18T09:11:39.327Z,1.70
2023-02-18T09:14:07.399Z,3.13
2023-02-18T09:16:35.939Z,1.15
2023-02-18T09:19:04.063Z,3.13
2023-02-18T09:21:32.471Z,1.85
2023-02-18T09:24:00.920Z,1.00
2023-02-18T09:26:30.668Z,1.80
2023-02-18T09:28:58.735Z,1.73
2023-02-18T09:31:28.913Z,2.15
2023-02-18T09:33:59.902Z,1.40
2023-02-18T09:36:28.874Z,1.77
2023-02-18T09:38:56.934Z,1.70
2023-02-18T09:41:33.230Z,1.92
2023-02-18T09:44:03.458Z,2.20
2023-02-18T09:46:35.740Z,1.50
2023-02-18T09:49:07.561Z,2.22
2023-02-18T09:51:35.970Z,2.40
2023-02-18T09:54:04.018Z,1.98
2023-02-18T09:56:35.818Z,1.80
2023-02-18T09:59:06.016Z,1.60
2023-02-18T10:01:37.484Z,2.22
2023-02-18T10:04:11.302Z,1.80
2023-02-18T10:06:39.919Z,1.92
2023-02-18T10:09:18.076Z,1.50
2023-02-18T10:11:50.370Z,1.70
2023-02-18T10:14:18.639Z,1.67
2023-02-18T10:16:48.553Z,2.15
2023-02-18T10:19:23.586Z,2.10
2023-02-18T10:21:53.925Z,2.83
2023-02-18T10:24:30.047Z,1.98
2023-02-18T10:27:00.753Z,0.90
2023-02-18T10:29:32.130Z,1.15
2023-02-18T10:32:07.312Z,0.93
2023-02-18T10:34:43.355Z,1.33
2023-02-18T10:37:33.215Z,1.08
2023-02-18T10:40:07.989Z,1.05
2023-02-18T10:42:47.547Z,1.80
2023-02-18T10:45:24.792Z,1.35
2023-02-18T10:48:01.675Z,1.35
2023-02-18T10:50:32.129Z,2.13
2023-02-18T10:53:04.292Z,2.33
2023-02-18T10:55:37.901Z,2.28
2023-02-18T10:58:26.451Z,2.70
2023-02-18T11:00:54.851Z,2.45
2023-02-18T11:03:24.935Z,2.38
2023-02-18T11:05:55.698Z,1.92
2023-02-18T11:08:26.357Z,2.28
2023-02-18T11:10:55.013Z,1.60
2023-02-18T11:13:28.038Z,1.95
2023-02-18T11:15:58.855Z,2.38
2023-02-18T11:18:35.288Z,3.03
2023-02-18T11:21:07.073Z,2.08
2023-02-18T11:23:48.773Z,2.08
2023-02-18T11:26:18.539Z,2.40
2023-02-18T11:28:50.348Z,1.85
2023-02-18T11:31:22.466Z,1.75
2023-02-18T11:33:53.417Z,2.35
2023-02-18T11:36:25.665Z,1.92
2023-02-18T11:38:56.554Z,2.03
2023-02-18T11:41:32.918Z,9.88
2023-02-18T11:44:03.086Z,2.47
2023-02-18T11:46:31.277Z,5.68
2023-02-18T11:49:13.214Z,2.65
2023-02-18T11:51:41.836Z,2.38
2023-02-18T11:54:25.645Z,1.90
2023-02-18T11:56:59.062Z,1.58
2023-02-18T11:59:29.485Z,2.55
2023-02-18T12:02:04.856Z,3.85
2023-02-18T12:04:38.666Z,2.00
2023-02-18T12:07:15.706Z,1.77
2023-02-18T12:09:47.721Z,3.22
2023-02-18T12:12:18.907Z,4.03
2023-02-18T12:14:48.605Z,2.53
2023-02-18T12:17:27.947Z,2.38
2023-02-18T12:20:08.369Z,2.35
2023-02-18T12:22:43.694Z,1.90
2023-02-18T12:25:25.144Z,2.22
2023-02-18T12:28:01.591Z,2.47
2023-02-18T12:30:51.958Z,2.13
2023-02-18T12:33:26.184Z,3.00
2023-02-18T12:36:05.460Z,3.50
2023-02-18T12:38:56.438Z,2.97
2023-02-18T12:41:40.045Z,3.05
2023-02-18T12:44:16.416Z,7.10
2023-02-18T12:46:58.748Z,6.28
2023-02-18T12:49:54.126Z,3.38
2023-02-18T12:52:30.808Z,2.80
2023-02-18T12:55:20.851Z,2.55
2023-02-18T12:57:53.988Z,3.45
2023-02-18T13:00:39.701Z,3.90
2023-02-18T13:03:47.102Z,5.60
2023-02-18T13:06:25.341Z,9.95
2023-02-18T13:09:01.278Z,9.18
2023-02-18T13:11:36.377Z,8.40
2023-02-18T13:14:11.915Z,3.67
2023-02-18T13:16:41.260Z,3.50
2023-02-18T13:19:19.578Z,4.45
2023-02-18T13:21:48.996Z,4.05
2023-02-18T13:24:29.485Z,3.38
2023-02-18T13:27:02.193Z,4.82
2023-02-18T13:29:33.346Z,4.90
2023-02-18T13:32:10.609Z,4.47
2023-02-18T13:34:44.553Z,4.78
2023-02-18T13:37:18.544Z,4.55
2023-02-18T13:39:50.622Z,5.35
2023-02-18T13:42:28.254Z,4.93
2023-02-18T13:45:25.135Z,6.88
2023-02-18T13:47:53.809Z,8.02
2023-02-18T13:50:32.829Z,7.57
2023-02-18T13:53:21.723Z,5.60
2023-02-18T13:56:03.031Z,4.35
2023-02-18T13:58:35.990Z,5.07
2023-02-18T14:01:07.379Z,4.65
2023-02-18T14:03:41.090Z,4.33
2023-02-18T14:06:18.631Z,4.82
2023-02-18T14:08:47.383Z,5.55
2023-02-18T14:11:36.199Z,6.82
2023-02-18T14:14:32.926Z,6.60
2023-02-18T14:17:35.122Z,6.70
2023-02-18T14:20:44.249Z,7.07
2023-02-18T14:23:45.659Z,6.75
2023-02-18T14:26:26.387Z,7.30
2023-02-18T14:28:57.525Z,7.78
2023-02-18T14:31:32.284Z,7.95
2023-02-18T14:34:28.158Z,7.82
2023-02-18T14:37:05.071Z,24.45
2023-02-18T14:39:43.458Z,9.38
2023-02-18T14:42:19.011Z,9.30
2023-02-18T14:44:59.500Z,10.13
2023-02-18T14:47:33.825Z,9.90
2023-02-18T14:50:03.855Z,11.85
2023-02-18T14:52:34.320Z,9.40
2023-02-18T14:55:07.077Z,10.07
2023-02-18T14:57:38.427Z,9.63
2023-02-18T15:00:07.908Z,10.70
2023-02-18T15:02:39.443Z,10.80
2023-02-18T15:05:14.856Z,10.93
2023-02-18T15:07:42.939Z,14.68
2023-02-18T15:10:16.586Z,14.88
2023-02-18T15:12:45.171Z,17.90
2023-02-18T15:15:16.327Z,17.15
2023-02-18T15:17:48.225Z,22.20
2023-02-18T15:20:17.416Z,25.02
2023-02-18T15:22:45.553Z,26.88
2023-02-18T15:25:16.165Z,30.73
2023-02-18T15:27:46.970Z,32.20
2023-02-18T15:30:21.516Z,32.88
2023-02-18T15:32:52.500Z,32.33
2023-02-18T15:35:23.127Z,31.92
2023-02-18T15:37:54.380Z,30.52
2023-02-18T15:40:25.757Z,30.87
2023-02-18T15:42:57.531Z,32.75
2023-02-18T15:45:30.525Z,35.67
2023-02-18T15:47:59.929Z,35.22
2023-02-18T15:50:31.052Z,34.67
2023-02-18T15:53:01.688Z,36.55
2023-02-18T15:55:34.564Z,38.80
2023-02-18T16:00:34.544Z,39.40
2023-02-18T16:03:06.388Z,40.10
2023-02-18T16:09:34.553Z,38.10
2023-02-18T16:12:04.366Z,32.60
2023-02-18T16:14:34.631Z,18.92
2023-02-18T16:17:10.159Z,17.13
2023-02-18T16:20:03.558Z,19.63
2023-02-18T16:22:38.086Z,10.32
2023-02-18T16:25:16.952Z,9.73
2023-02-18T16:27:51.482Z,9.18
2023-02-18T16:30:21.632Z,18.58
2023-02-18T16:32:50.146Z,13.13
2023-02-18T16:35:18.579Z,11.15
2023-02-18T16:37:50.105Z,9.60
2023-02-18T16:40:31.053Z,13.27
2023-02-18T16:43:01.008Z,9.35
2023-02-18T16:45:37.411Z,8.65
2023-02-18T16:48:06.444Z,6.68
2023-02-18T16:50:34.954Z,6.88
2023-02-18T16:53:03.396Z,6.18
2023-02-18T16:55:32.817Z,5.38
2023-02-18T16:58:01.162Z,5.55
2023-02-18T17:00:29.088Z,5.47
2023-02-18T17:02:58.825Z,4.80
2023-02-18T17:05:30.134Z,4.68
2023-02-18T17:08:00.838Z,4.90
2023-02-18T17:10:28.970Z,4.90
2023-02-18T17:12:58.692Z,5.00
2023-02-18T17:15:31.739Z,5.75
2023-02-18T17:18:00.494Z,5.10
2023-02-18T17:20:29.483Z,5.25
2023-02-18T17:22:58.947Z,5.13
2023-02-18T17:25:30.636Z,5.28
2023-02-18T17:28:00.216Z,5.07
2023-02-18T17:30:28.486Z,3.97
2023-02-18T17:32:56.724Z,5.68
2023-02-18T17:35:25.614Z,4.30
2023-02-18T17:37:54.075Z,6.25
2023-02-18T17:40:23.981Z,5.97
2023-02-18T17:42:52.534Z,5.90
2023-02-18T17:45:27.156Z,6.30
2023-02-18T17:47:55.720Z,5.75
2023-02-18T17:50:24.054Z,6.22
2023-02-18T17:52:52.301Z,5.97
2023-02-18T17:55:22.914Z,6.80
2023-02-18T17:57:52.403Z,5.65
2023-02-18T18:00:24.611Z,6.43
2023-02-18T18:02:53.562Z,6.50
2023-02-18T18:05:23.783Z,7.00
2023-02-18T18:07:52.713Z,7.60
2023-02-18T18:10:23.119Z,8.10
2023-02-18T18:12:51.292Z,6.95
2023-02-18T18:15:29.737Z,7.25
2023-02-18T18:17:58.923Z,6.55
2023-02-18T18:20:29.145Z,6.15
2023-02-18T18:22:58.876Z,7.65
2023-02-18T18:25:28.408Z,6.68
2023-02-18T18:27:56.898Z,6.30
2023-02-18T18:30:29.549Z,7.03
2023-02-18T18:32:58.230Z,7.07
2023-02-18T18:35:28.835Z,6.97
2023-02-18T18:37:57.665Z,7.28
2023-02-18T18:40:28.093Z,7.55
2023-02-18T18:42:57.420Z,7.47
2023-02-18T18:45:29.120Z,7.05
2023-02-18T18:47:57.314Z,7.95
2023-02-18T18:50:26.082Z,9.10
2023-02-18T18:52:55.528Z,10.20
2023-02-18T18:55:27.530Z,10.48
2023-02-18T18:57:56.350Z,9.07
2023-02-18T19:00:27.748Z,9.45
2023-02-18T19:02:56.155Z,6.80
2023-02-18T19:05:28.087Z,10.20
2023-02-18T19:07:56.876Z,7.40
2023-02-18T19:10:25.069Z,6.25
2023-02-18T19:12:53.239Z,11.90
2023-02-18T19:15:23.122Z,6.45
2023-02-18T19:17:53.724Z,5.68
2023-02-18T19:20:23.938Z,5.47
2023-02-18T19:22:52.414Z,6.05
2023-02-18T19:25:21.380Z,6.03
2023-02-18T19:27:50.617Z,5.72
2023-02-18T19:30:22.858Z,6.68
2023-02-18T19:32:54.044Z,5.22
2023-02-18T19:35:22.912Z,6.53
2023-02-18T19:37:51.189Z,5.95
2023-02-18T19:40:21.062Z,5.85
2023-02-18T19:42:49.621Z,5.63
2023-02-18T19:45:18.403Z,6.22
2023-02-18T19:47:47.212Z,5.10
2023-02-18T19:50:17.510Z,7.00
2023-02-18T19:52:45.746Z,7.35
2023-02-18T19:55:13.729Z,5.53
2023-02-18T19:57:42.093Z,6.75
2023-02-18T20:00:12.567Z,4.32
2023-02-18T20:02:41.211Z,3.90
2023-02-18T20:05:10.168Z,5.85
2023-02-18T20:07:41.382Z,4.28
2023-02-18T20:10:12.856Z,4.38
2023-02-18T20:12:41.162Z,3.00
2023-02-18T20:15:09.709Z,3.72
2023-02-18T20:17:38.587Z,3.70
2023-02-18T20:20:07.366Z,3.38
2023-02-18T20:22:35.768Z,3.40
2023-02-18T20:25:05.513Z,4.05
2023-02-18T20:27:33.921Z,3.55
2023-02-18T20:30:01.982Z,3.30
2023-02-18T20:32:30.230Z,3.47
2023-02-18T20:34:58.200Z,3.15
2023-02-18T20:37:26.406Z,3.00
2023-02-18T20:39:54.350Z,2.55
2023-02-18T20:42:23.874Z,2.83
2023-02-18T20:44:52.316Z,3.00
2023-02-18T20:47:20.554Z,2.67
2023-02-18T20:49:48.498Z,1.52
2023-02-18T20:52:17.044Z,2.70
2023-02-18T20:54:45.125Z,2.90
2023-02-18T20:57:13.312Z,2.30
2023-02-18T20:59:42.596Z,2.50
2023-02-18T21:02:12.438Z,2.53
2023-02-18T21:04:40.476Z,2.30
2023-02-18T21:07:08.627Z,2.38
2023-02-18T21:09:36.698Z,1.83
2023-02-18T21:12:05.674Z,2.13
2023-02-18T21:14:33.682Z,2.92
2023-02-18T21:17:04.134Z,2.35
2023-02-18T21:19:32.176Z,2.40
2023-02-18T21:22:00.342Z,2.55
2023-02-18T21:24:28.529Z,2.92
2023-02-18T21:26:56.707Z,2.85
2023-02-18T21:29:24.855Z,3.70
2023-02-18T21:31:53.174Z,3.25
2023-02-18T21:34:22.808Z,2.95
2023-02-18T21:36:51.009Z,1.63
2023-02-18T21:39:19.027Z,1.90
2023-02-18T21:41:48.080Z,1.98
2023-02-18T21:44:15.999Z,2.50
2023-02-18T21:46:44.425Z,2.42
2023-02-18T21:49:12.547Z,3.33
2023-02-18T21:52:00.514Z,2.75
2023-02-18T21:54:30.453Z,2.70
2023-02-18T21:57:00.133Z,2.20
2023-02-18T21:59:29.664Z,1.90
2023-02-18T22:01:59.802Z,1.65
2023-02-18T22:04:28.018Z,1.77
2023-02-18T22:06:58.328Z,1.80
2023-02-18T22:09:26.628Z,1.73
2023-02-18T22:11:55.309Z,2.20
2023-02-18T22:14:23.524Z,2.67
2023-02-18T22:16:52.146Z,1.75
2023-02-18T22:19:21.679Z,1.80
2023-02-18T22:21:49.977Z,2.40
2023-02-18T22:24:20.020Z,2.80
2023-02-18T22:26:48.956Z,2.42
2023-02-18T22:29:18.814Z,2.63
2023-02-18T22:31:48.032Z,2.03
2023-02-18T22:34:16.699Z,2.45
2023-02-18T22:36:44.874Z,2.55
2023-02-18T22:39:13.458Z,2.60
2023-02-18T22:41:43.578Z,3.08
2023-02-18T22:44:13.724Z,3.17
2023-02-18T22:46:42.219Z,2.70
2023-02-18T22:49:10.134Z,2.85
2023-02-18T22:51:40.633Z,2.35
2023-02-18T22:54:12.327Z,1.90
2023-02-18T22:56:42.039Z,2.10
2023-02-18T22:59:11.826Z,1.92
2023-02-18T23:01:41.444Z,2.38
2023-02-18T23:04:11.491Z,2.35
2023-02-18T23:06:41.605Z,2.40
2023-02-18T23:09:10.453Z,2.38
2023-02-18T23:11:38.891Z,2.00
2023-02-18T23:14:21.227Z,2.97
2023-02-18T23:19:36.811Z,2.60
2023-02-18T23:22:05.688Z,2.72
2023-02-18T23:24:34.777Z,2.00
2023-02-18T23:27:04.483Z,2.47
2023-02-18T23:29:33.760Z,2.38
2023-02-18T23:32:02.339Z,2.28
2023-02-18T23:34:30.704Z,1.98
2023-02-18T23:36:59.241Z,3.30
2023-02-18T23:39:27.214Z,3.08
2023-02-18T23:41:55.583Z,2.40
2023-02-18T23:44:25.074Z,2.58
2023-02-18T23:46:54.892Z,2.78
2023-02-18T23:49:24.538Z,2.80
2023-02-18T23:51:54.265Z,2.38
2023-02-18T23:54:22.450Z,3.00
2023-02-18T23:56:50.658Z,2.60
2023-02-18T23:59:18.619Z,2.80
